Time;durP1;ratioP1;P1;durP2;ratioP2;P2;SDS_P1;SDS_P2;PMS_P1;PMS_P2;Temp;Humidity;BMP_temperature;BMP_pressure;BME280_temperature;BME280_humidity;BME280_pressure;Samples;Min_cycle;Max_cycle;Signal;HPM_P1;HPM_P2
2022/06/25 00:00:24;;;;;;;10.30;6.68;;;18.20;99.90;;;;;;6194164;23;20019;-92
2022/06/25 00:02:50;;;;;;;10.13;6.53;;;18.10;99.90;;;;;;6194429;23;20011;-95
2022/06/25 00:05:27;;;;;;;10.15;6.40;;;18.10;99.90;;;;;;6194836;23;20111;-95
2022/06/25 00:07:54;;;;;;;9.15;6.32;;;18.00;99.90;;;;;;6194697;23;20026;-90
2022/06/25 00:10:20;;;;;;;12.40;6.55;;;17.90;99.90;;;;;;6194191;23;20022;-89
2022/06/25 00:12:46;;;;;;;9.57;6.60;;;17.80;99.90;;;;;;6169745;23;20057;-89
2022/06/25 00:15:12;;;;;;;9.13;6.40;;;17.80;99.90;;;;;;6093700;23;20069;-90
2022/06/25 00:17:38;;;;;;;9.80;6.00;;;17.70;99.90;;;;;;6169464;23;20049;-90
2022/06/25 00:20:05;;;;;;;9.68;6.18;;;17.70;99.90;;;;;;6194416;23;20440;-92
2022/06/25 00:22:30;;;;;;;8.55;5.82;;;17.70;99.90;;;;;;6169521;23;20022;-96
2022/06/25 00:24:56;;;;;;;9.00;5.68;;;17.70;99.90;;;;;;6194725;23;20336;-91
2022/06/25 00:27:22;;;;;;;9.60;5.95;;;17.70;99.90;;;;;;6194268;23;20022;-90
2022/06/25 00:29:48;;;;;;;8.48;5.78;;;17.70;99.90;;;;;;6194352;23;20010;-92
2022/06/25 00:32:14;;;;;;;8.48;5.88;;;17.60;99.90;;;;;;6195039;23;20079;-95
2022/06/25 00:34:40;;;;;;;;;;;17.60;99.90;;;;;;6195501;23;20026;-91
2022/06/25 00:37:31;;;;;;;9.13;5.60;;;17.60;99.90;;;;;;6219694;22;19918;-96
2022/06/25 00:39:57;;;;;;;8.02;5.50;;;17.60;99.90;;;;;;6194208;23;20026;-91
2022/06/25 00:42:22;;;;;;;7.95;5.38;;;17.60;99.90;;;;;;6194289;23;20344;-92
2022/06/25 00:44:48;;;;;;;8.45;5.68;;;17.60;99.90;;;;;;6169358;23;20022;-93
2022/06/25 00:47:14;;;;;;;11.40;5.70;;;17.60;99.90;;;;;;6093306;23;20033;-89
2022/06/25 00:49:41;;;;;;;9.68;6.47;;;17.60;99.90;;;;;;6193913;23;20025;-90
2022/06/25 00:52:13;;;;;;;9.07;5.68;;;17.60;99.90;;;;;;6194033;23;20022;-94
2022/06/25 00:55:09;;;;;;;9.10;5.78;;;17.60;99.90;;;;;;6194468;23;20072;-90
2022/06/25 00:57:59;;;;;;;9.57;6.20;;;17.60;99.90;;;;;;6169220;23;20061;-93
2022/06/25 01:00:26;;;;;;;10.23;6.35;;;17.60;99.90;;;;;;6168677;23;20019;-89
2022/06/25 01:02:51;;;;;;;;;;;17.60;99.90;;;;;;6194732;23;20072;-92
2022/06/25 01:05:17;;;;;;;10.20;6.75;;;17.50;99.90;;;;;;6169380;23;20253;-95
2022/06/25 01:07:45;;;;;;;9.60;6.22;;;17.50;99.90;;;;;;6093487;23;20018;-96
2022/06/25 01:10:13;;;;;;;9.80;6.55;;;17.40;99.90;;;;;;6194324;23;20019;-95
2022/06/25 01:12:39;;;;;;;9.90;6.57;;;17.40;99.90;;;;;;6194758;23;20084;-93
2022/06/25 01:15:10;;;;;;;10.25;6.57;;;17.30;99.90;;;;;;6194434;23;20097;-92
2022/06/25 01:17:51;;;;;;;9.48;6.13;;;17.30;99.90;;;;;;6169664;23;20022;-93
2022/06/25 01:20:19;;;;;;;10.00;6.93;;;17.30;99.90;;;;;;6169844;23;20022;-94
2022/06/25 01:22:45;;;;;;;10.13;6.95;;;17.20;99.90;;;;;;6196215;23;20065;-93
2022/06/25 01:25:12;;;;;;;10.27;6.30;;;17.20;99.90;;;;;;6174744;23;20025;-90
2022/06/25 01:28:17;;;;;;;12.60;7.00;;;17.20;99.90;;;;;;6179522;23;20025;-91
2022/06/25 01:30:43;;;;;;;10.75;6.18;;;17.10;99.90;;;;;;6178570;23;20048;-92
2022/06/25 01:33:09;;;;;;;10.73;6.53;;;17.10;99.90;;;;;;6175920;23;20026;-90
2022/06/25 01:35:35;;;;;;;;;;;17.10;99.90;;;;;;6094807;23;20022;-92
2022/06/25 01:38:02;;;;;;;8.90;6.07;;;17.10;99.90;;;;;;6219523;22;19918;-95
2022/06/25 01:40:28;;;;;;;10.05;6.35;;;17.00;99.90;;;;;;6193623;23;20029;-94
2022/06/25 01:43:00;;;;;;;10.98;6.63;;;17.00;99.90;;;;;;6168894;23;20015;-89
2022/06/25 01:45:51;;;;;;;9.88;6.57;;;17.00;99.90;;;;;;6194236;23;20026;-90
2022/06/25 01:48:41;;;;;;;9.60;5.80;;;17.00;99.90;;;;;;6169901;23;20015;-93
2022/06/25 01:51:07;;;;;;;10.85;6.45;;;17.00;99.90;;;;;;6168898;23;20054;-95
2022/06/25 01:53:32;;;;;;;9.68;5.88;;;17.00;99.90;;;;;;6169237;23;20332;-95
2022/06/25 01:55:58;;;;;;;9.07;5.80;;;17.00;99.90;;;;;;6193999;23;20022;-92
2022/06/25 01:58:24;;;;;;;10.10;6.20;;;17.00;99.90;;;;;;6168608;23;20026;-94
2022/06/25 02:00:50;;;;;;;8.70;5.47;;;17.10;99.90;;;;;;6170319;23;20026;-90
2022/06/25 02:03:15;;;;;;;8.25;5.68;;;17.00;99.90;;;;;;6094153;23;20015;-90
2022/06/25 02:05:57;;;;;;;9.00;5.55;;;17.00;99.90;;;;;;6195717;23;20436;-95
2022/06/25 02:08:33;;;;;;;9.98;5.70;;;16.90;99.90;;;;;;6195709;23;20109;-92
2022/06/25 02:11:00;;;;;;;8.63;5.57;;;16.80;99.90;;;;;;6093739;23;20105;-89
2022/06/25 02:13:26;;;;;;;9.38;5.72;;;16.80;99.90;;;;;;6195706;23;20023;-94
2022/06/25 02:15:53;;;;;;;8.32;5.05;;;16.80;99.90;;;;;;6195353;23;20340;-96
2022/06/25 02:18:37;;;;;;;8.32;5.53;;;16.70;99.90;;;;;;6171416;23;20018;-88
2022/06/25 02:21:03;;;;;;;7.07;4.80;;;16.70;99.90;;;;;;6170230;23;20049;-92
2022/06/25 02:23:29;;;;;;;8.40;5.22;;;16.60;99.90;;;;;;6093857;23;20444;-93
2022/06/25 02:25:54;;;;;;;7.85;5.22;;;16.70;99.90;;;;;;6195319;23;20347;-92
2022/06/25 02:28:20;;;;;;;8.00;4.97;;;16.70;99.90;;;;;;6195181;23;20084;-94
2022/06/25 02:30:46;;;;;;;9.48;5.65;;;16.60;99.90;;;;;;6195421;23;20023;-94
2022/06/25 02:33:14;;;;;;;8.07;5.20;;;16.60;99.90;;;;;;6195215;23;20034;-90
2022/06/25 02:35:41;;;;;;;8.10;4.88;;;16.60;99.90;;;;;;6170039;23;20098;-94
2022/06/25 02:38:09;;;;;;;6.93;4.82;;;16.60;99.90;;;;;;6170373;23;20022;-92
2022/06/25 02:40:35;;;;;;;7.70;5.45;;;16.60;99.90;;;;;;6195011;23;20038;-94
2022/06/25 02:43:01;;;;;;;6.88;4.60;;;16.60;99.90;;;;;;6195523;23;20069;-93
2022/06/25 02:45:28;;;;;;;7.72;4.40;;;16.60;99.90;;;;;;6093765;23;20346;-95
2022/06/25 02:47:56;;;;;;;6.68;4.28;;;16.60;99.90;;;;;;6195419;23;20386;-94
2022/06/25 02:50:23;;;;;;;8.48;4.97;;;16.60;99.90;;;;;;6170126;23;20026;-94
2022/06/25 02:52:49;;;;;;;8.02;4.85;;;16.60;99.90;;;;;;6170313;23;20014;-90
2022/06/25 02:55:15;;;;;;;7.70;4.53;;;16.60;99.90;;;;;;6195353;23;20022;-95
2022/06/25 03:00:25;;;;;;;8.38;5.03;;;16.60;99.90;;;;;;6092591;23;20033;-90
2022/06/25 03:02:51;;;;;;;7.05;4.65;;;16.60;99.90;;;;;;6094069;23;20165;-93
2022/06/25 03:05:16;;;;;;;7.10;4.03;;;16.60;99.90;;;;;;6195287;23;20018;-91
2022/06/25 03:07:42;;;;;;;7.70;4.68;;;16.60;99.90;;;;;;6195567;23;20019;-90
2022/06/25 03:10:08;;;;;;;7.63;4.70;;;16.60;99.90;;;;;;6194874;23;20023;-96
2022/06/25 03:12:34;;;;;;;7.47;4.63;;;16.70;99.90;;;;;;6169580;23;20072;-94
2022/06/25 03:15:00;;;;;;;7.80;4.95;;;16.60;99.90;;;;;;6169373;23;20432;-89
2022/06/25 03:17:27;;;;;;;6.20;4.05;;;16.60;99.90;;;;;;6169814;23;20033;-95
2022/06/25 03:19:54;;;;;;;6.28;3.95;;;16.70;99.90;;;;;;6092405;23;20451;-93
2022/06/25 03:22:20;;;;;;;7.13;4.25;;;16.70;99.90;;;;;;6194242;23;20329;-93
2022/06/25 03:24:46;;;;;;;9.50;4.85;;;16.70;99.90;;;;;;6195184;23;20050;-90
2022/06/25 03:27:12;;;;;;;8.00;5.00;;;16.60;99.90;;;;;;6170100;23;20025;-96
2022/06/25 03:29:38;;;;;;;7.93;4.88;;;16.60;99.90;;;;;;6194705;23;20049;-93
2022/06/25 03:32:04;;;;;;;7.78;5.07;;;16.60;99.90;;;;;;6169662;23;20025;-89
2022/06/25 03:34:29;;;;;;;6.43;4.10;;;16.60;99.90;;;;;;6194954;23;20482;-90
2022/06/25 03:36:55;;;;;;;6.40;3.85;;;16.70;99.90;;;;;;6093682;23;20022;-90
2022/06/25 03:39:40;;;;;;;6.57;4.22;;;16.60;99.90;;;;;;6195607;23;20015;-89
2022/06/25 03:42:05;;;;;;;8.57;4.50;;;16.60;99.90;;;;;;6169156;23;20062;-87
2022/06/25 03:44:31;;;;;;;6.65;4.25;;;16.60;99.90;;;;;;6169795;23;20019;-90
2022/06/25 03:46:57;;;;;;;7.28;4.30;;;16.60;99.90;;;;;;6169668;23;20057;-93
2022/06/25 03:49:22;;;;;;;7.55;4.30;;;16.50;99.90;;;;;;6093187;23;20076;-95
2022/06/25 03:51:49;;;;;;;7.45;3.95;;;16.50;99.90;;;;;;6194199;23;20026;-88
2022/06/25 03:54:52;;;;;;;7.22;4.07;;;16.60;99.90;;;;;;6094068;23;20085;-90
2022/06/25 05:29:23;;;;;;;6.88;4.22;;;19.80;99.90;;;;;;6241193;22;20020;-96
2022/06/25 06:37:18;;;;;;;5.38;2.88;;;21.50;99.90;;;;;;6241561;22;20051;-91
2022/06/25 06:39:44;;;;;;;5.47;3.17;;;21.40;99.90;;;;;;6191269;23;20430;-93
2022/06/25 06:47:23;;;;;;;5.35;3.08;;;21.10;99.90;;;;;;6217727;22;20032;-93
2022/06/25 06:49:55;;;;;;;5.28;2.95;;;21.10;99.90;;;;;;6192533;23;20021;-94
2022/06/25 06:52:21;;;;;;;5.88;3.67;;;21.00;99.90;;;;;;6195857;23;20013;-92
2022/06/25 06:54:46;;;;;;;5.50;2.83;;;21.10;99.90;;;;;;6193592;23;20025;-92
2022/06/25 06:57:12;;;;;;;6.47;3.30;;;21.00;99.90;;;;;;6200698;23;20047;-93
2022/06/25 06:59:38;;;;;;;6.43;2.80;;;21.00;99.90;;;;;;6198004;23;20016;-92
2022/06/25 07:02:04;;;;;;;6.32;3.00;;;21.00;99.90;;;;;;6216204;23;20042;-93
2022/06/25 07:04:32;;;;;;;5.40;3.05;;;21.20;99.90;;;;;;6190988;23;20025;-94
2022/06/25 07:06:58;;;;;;;5.15;3.13;;;21.40;99.90;;;;;;6190890;23;20023;-93
2022/06/25 07:09:23;;;;;;;5.18;2.75;;;21.70;99.90;;;;;;6191153;23;20021;-92
2022/06/25 07:11:49;;;;;;;4.50;2.50;;;21.80;99.90;;;;;;6191151;23;20013;-93
2022/06/25 07:14:15;;;;;;;5.53;3.08;;;21.90;99.90;;;;;;6190918;23;20443;-93
2022/06/25 07:16:44;;;;;;;6.20;2.80;;;22.00;99.90;;;;;;6190988;23;20079;-93
2022/06/25 07:19:12;;;;;;;5.63;2.60;;;22.00;99.90;;;;;;6190590;23;20017;-92
2022/06/25 07:21:38;;;;;;;5.28;2.70;;;22.20;99.90;;;;;;6190724;23;20019;-93
2022/06/25 07:24:04;;;;;;;4.78;2.53;;;22.30;99.90;;;;;;6190750;23;20021;-90
2022/06/25 07:26:36;;;;;;;7.13;2.95;;;22.30;99.90;;;;;;6190557;23;20028;-90
2022/06/25 07:29:02;;;;;;;5.38;2.83;;;22.30;99.90;;;;;;6192278;23;20017;-96
2022/06/25 07:31:28;;;;;;;5.22;2.72;;;22.40;99.90;;;;;;6216831;23;20028;-91
2022/06/25 07:33:54;;;;;;;5.60;2.67;;;22.60;99.90;;;;;;6193461;23;20021;-93
2022/06/25 07:36:19;;;;;;;5.03;2.80;;;22.90;99.90;;;;;;6192921;23;20458;-93
2022/06/25 07:38:45;;;;;;;5.32;2.67;;;22.90;99.90;;;;;;6192333;23;20095;-94
2022/06/25 07:41:11;;;;;;;4.57;2.35;;;23.00;99.90;;;;;;6221665;23;20095;-96
2022/06/25 07:43:37;;;;;;;5.20;2.88;;;22.90;99.90;;;;;;6197207;23;20013;-92
2022/06/25 07:46:04;;;;;;;5.75;2.53;;;22.90;99.90;;;;;;6191875;23;20068;-94
2022/06/25 07:48:30;;;;;;;6.07;2.75;;;22.70;99.90;;;;;;6216653;23;20017;-93
2022/06/25 07:53:40;;;;;;;4.65;2.88;;;22.50;99.90;;;;;;6217778;23;20016;-95
2022/06/25 07:56:06;;;;;;;5.05;2.63;;;22.40;99.90;;;;;;6194327;23;20074;-93
2022/06/25 07:58:32;;;;;;;4.53;2.42;;;22.40;99.90;;;;;;6223584;23;20047;-95
2022/06/25 08:00:58;;;;;;;4.28;2.50;;;22.40;99.90;;;;;;6200365;23;20039;-92
2022/06/25 08:03:24;;;;;;;3.72;2.15;;;22.30;99.90;;;;;;6198830;23;20430;-95
2022/06/25 08:05:49;;;;;;;4.10;1.92;;;22.30;99.90;;;;;;6196268;23;20016;-96
2022/06/25 08:08:15;;;;;;;3.53;1.67;;;22.30;99.90;;;;;;6197656;23;20059;-93
2022/06/25 08:10:41;;;;;;;4.70;1.88;;;22.30;99.90;;;;;;6194324;23;20025;-94
2022/06/25 08:13:07;;;;;;;3.97;2.05;;;22.30;99.90;;;;;;6191306;23;20020;-94
2022/06/25 08:15:33;;;;;;;3.80;1.98;;;22.20;99.90;;;;;;6216055;23;20063;-92
2022/06/25 08:17:59;;;;;;;3.58;1.73;;;22.20;99.90;;;;;;6191791;23;20020;-95
2022/06/25 08:20:25;;;;;;;3.50;1.70;;;22.10;99.90;;;;;;6190605;23;20107;-94
2022/06/25 08:22:50;;;;;;;3.30;1.80;;;22.00;99.90;;;;;;6190772;23;20012;-96
2022/06/25 08:25:16;;;;;;;3.20;1.60;;;22.00;99.90;;;;;;6190980;23;20074;-94
2022/06/25 08:27:50;;;;;;;3.35;1.25;;;22.00;99.90;;;;;;6190851;23;20020;-92
2022/06/25 08:51:28;;;;;;;2.75;1.13;;;22.00;99.90;;;;;;6120042;22;20024;-87
2022/06/25 08:53:55;;;;;;;2.13;1.10;;;22.10;99.90;;;;;;6194234;23;20069;-86
2022/06/25 08:56:22;;;;;;;1.80;1.00;;;22.10;99.90;;;;;;6194034;23;20027;-87
2022/06/25 08:58:48;;;;;;;1.90;0.80;;;22.10;99.90;;;;;;6218898;23;20023;-87
2022/06/25 09:01:14;;;;;;;1.60;0.90;;;22.10;99.90;;;;;;6194320;23;20521;-88
2022/06/25 09:03:40;;;;;;;3.10;0.88;;;22.10;99.90;;;;;;6194264;23;20051;-90
2022/06/25 09:06:18;;;;;;;1.70;0.75;;;22.00;99.90;;;;;;6194495;23;20379;-89
2022/06/25 09:09:05;;;;;;;2.90;0.70;;;21.90;99.90;;;;;;6202590;23;20051;-88
2022/06/25 09:11:31;;;;;;;2.60;0.90;;;21.80;99.90;;;;;;6213158;23;20357;-89
2022/06/25 09:16:25;;;;;;;1.98;0.85;;;21.80;99.90;;;;;;6196470;23;20026;-90
2022/06/25 09:18:51;;;;;;;2.08;1.10;;;21.90;99.90;;;;;;6067543;23;20018;-91
2022/06/25 09:21:19;;;;;;;1.73;0.90;;;21.90;99.90;;;;;;6069474;23;20061;-91
2022/06/25 09:24:00;;;;;;;1.55;0.77;;;22.00;99.90;;;;;;6067626;23;20019;-90
2022/06/25 09:26:26;;;;;;;2.53;1.10;;;22.00;99.90;;;;;;6091542;23;20570;-92
2022/06/25 09:28:52;;;;;;;;;;;22.10;99.90;;;;;;6068021;23;20448;-91
2022/06/25 09:31:37;;;;;;;2.25;0.98;;;22.20;99.90;;;;;;6067440;23;19931;-89
2022/06/25 09:34:05;;;;;;;2.45;1.05;;;22.20;99.90;;;;;;6091346;23;20050;-89
2022/06/25 09:44:21;;;;;;;2.13;1.00;;;22.30;99.90;;;;;;6064714;23;20026;-87
2022/06/25 09:46:58;;;;;;;4.45;1.20;;;22.40;99.90;;;;;;6057957;23;20038;-87
2022/06/25 09:49:24;;;;;;;4.32;1.08;;;22.30;99.90;;;;;;6025562;23;20047;-90
2022/06/25 09:52:01;;;;;;;3.50;1.02;;;22.30;99.90;;;;;;6016197;23;20103;-89
2022/06/25 09:54:27;;;;;;;2.05;1.10;;;22.30;99.90;;;;;;6015401;23;20023;-88
2022/06/25 09:56:54;;;;;;;;;;;22.30;99.90;;;;;;6015642;23;20038;-90
2022/06/25 09:59:23;;;;;;;2.05;1.10;;;22.30;99.90;;;;;;6038733;23;19924;-90
2022/06/25 10:01:49;;;;;;;2.25;0.90;;;22.30;99.90;;;;;;6015075;23;20015;-89
2022/06/25 10:04:20;;;;;;;3.00;0.80;;;22.30;99.90;;;;;;6038880;23;20021;-91
2022/06/25 10:06:49;;;;;;;1.60;0.60;;;22.30;99.90;;;;;;6039104;23;20023;-91
2022/06/25 10:09:17;;;;;;;1.40;0.63;;;22.30;99.90;;;;;;6038726;23;20026;-90
2022/06/25 10:11:43;;;;;;;1.20;0.85;;;22.30;99.90;;;;;;6015169;23;20019;-91
2022/06/25 10:14:09;;;;;;;1.85;0.93;;;22.30;99.90;;;;;;6038524;23;20026;-91
2022/06/25 10:16:35;;;;;;;1.48;0.70;;;22.40;99.90;;;;;;6038591;23;20015;-92
2022/06/25 10:19:03;;;;;;;1.65;0.70;;;22.40;99.90;;;;;;6015116;23;20077;-91
2022/06/25 10:21:34;;;;;;;1.95;0.60;;;22.40;99.90;;;;;;6039275;23;20098;-92
2022/06/25 10:24:04;;;;;;;1.98;0.70;;;22.40;99.90;;;;;;6016229;23;20452;-91
2022/06/25 10:26:31;;;;;;;1.60;0.70;;;22.50;99.90;;;;;;6040728;23;20023;-91
2022/06/25 10:28:57;;;;;;;1.10;0.60;;;22.50;99.90;;;;;;6040012;23;20015;-90
2022/06/25 10:31:22;;;;;;;0.95;0.47;;;22.50;99.90;;;;;;6016439;23;20022;-90
2022/06/25 10:33:57;;;;;;;2.10;0.90;;;22.50;99.90;;;;;;6040205;23;20015;-91
2022/06/25 10:36:47;;;;;;;1.25;0.60;;;22.50;99.90;;;;;;6039991;23;20077;-89
2022/06/25 10:39:22;;;;;;;1.65;0.82;;;22.50;99.90;;;;;;6034986;23;20089;-92
2022/06/25 10:45:29;;;;;;;1.80;0.60;;;22.70;99.90;;;;;;6038599;23;20026;-91
2022/06/25 10:47:57;;;;;;;1.10;0.60;;;22.70;99.90;;;;;;6015520;23;20030;-90
2022/06/25 10:50:23;;;;;;;1.63;0.73;;;22.70;99.90;;;;;;6037102;23;20011;-91
2022/06/25 11:01:44;;;;;;;;;;;;;;;;;;;;;
2022/06/25 11:05:33;;;;;;;;;;;;;;;;;;;;;
2022/06/25 11:15:51;;;;;;;1.10;0.60;;;23.10;99.90;;;;;;6000487;23;20036;-91
2022/06/25 11:18:17;;;;;;;1.88;0.70;;;23.10;99.90;;;;;;6049068;23;20185;-91
2022/06/25 11:20:46;;;;;;;1.23;0.50;;;23.00;99.90;;;;;;5953949;23;20028;-90
2022/06/25 11:23:21;;;;;;;0.98;0.63;;;23.00;99.90;;;;;;5954344;23;20032;-91
2022/06/25 11:29:14;;;;;;;2.95;0.70;;;23.10;99.90;;;;;;6002837;23;20483;-92
2022/06/25 11:31:43;;;;;;;1.23;0.88;;;23.10;99.90;;;;;;6000375;23;20019;-91
2022/06/25 11:34:19;;;;;;;3.15;0.80;;;23.10;99.90;;;;;;6015701;23;20014;-90
2022/06/25 11:37:19;;;;;;;1.58;0.77;;;23.00;99.90;;;;;;6016209;23;20043;-91
2022/06/25 11:40:15;;;;;;;1.45;0.60;;;22.90;99.90;;;;;;6032975;23;20019;-91
2022/06/25 11:42:42;;;;;;;1.67;0.70;;;22.80;99.90;;;;;;6016027;23;20102;-90
2022/06/25 11:45:11;;;;;;;0.90;0.60;;;22.80;99.90;;;;;;6039311;23;20015;-91
2022/06/25 11:47:37;;;;;;;1.85;0.60;;;22.70;99.90;;;;;;6016084;23;20023;-90
2022/06/25 11:56:09;;;;;;;1.33;0.60;;;22.60;99.90;;;;;;6211054;22;20017;-91
2022/06/25 11:58:43;;;;;;;1.10;0.55;;;22.60;99.90;;;;;;6135633;23;20470;-91
2022/06/25 12:01:12;;;;;;;1.35;0.80;;;22.50;99.90;;;;;;6135435;23;20060;-91
2022/06/25 12:03:38;;;;;;;1.92;0.70;;;22.50;99.90;;;;;;6135753;23;20020;-91
2022/06/25 12:06:09;;;;;;;1.52;0.73;;;22.50;99.90;;;;;;6135398;23;20017;-92
2022/06/25 12:08:58;;;;;;;1.50;0.68;;;22.60;99.90;;;;;;6136012;23;20028;-91
2022/06/25 13:09:53;;;;;;;3.55;1.38;;;22.10;99.90;;;;;;6095334;22;20016;-87
2022/06/25 13:12:28;;;;;;;2.67;1.52;;;21.90;99.90;;;;;;6189116;23;20020;-89
2022/06/25 13:14:55;;;;;;;3.97;1.75;;;21.80;99.90;;;;;;6189920;23;20020;-87
2022/06/25 13:19:56;;;;;;;2.65;1.45;;;21.70;99.90;;;;;;6249671;22;20350;-86
2022/06/25 13:59:48;;;;;;;4.05;2.28;;;21.70;99.90;;;;;;6249914;23;20017;-89
2022/06/25 14:02:17;;;;;;;4.20;2.20;;;21.70;99.90;;;;;;6194758;23;20095;-89
2022/06/25 14:04:58;;;;;;;4.55;1.70;;;21.70;99.90;;;;;;6196337;23;20020;-89
2022/06/25 14:07:30;;;;;;;4.38;2.10;;;21.70;99.90;;;;;;6194086;23;20017;-89
2022/06/25 14:09:59;;;;;;;7.95;2.47;;;21.70;99.90;;;;;;6195920;23;20020;-89
2022/06/25 14:12:30;;;;;;;4.10;2.10;;;21.80;99.90;;;;;;6195879;23;20464;-89
2022/06/25 14:15:12;;;;;;;3.83;2.03;;;21.90;99.90;;;;;;6196242;23;20031;-89
2022/06/25 14:17:52;;;;;;;4.78;2.10;;;22.00;99.90;;;;;;6195030;23;20016;-89
2022/06/25 14:20:52;;;;;;;3.38;1.90;;;22.20;99.90;;;;;;6196237;23;20019;-90
2022/06/25 14:23:26;;;;;;;4.30;1.98;;;22.30;99.90;;;;;;6196207;23;20019;-89
2022/06/25 14:25:52;;;;;;;5.03;1.95;;;22.30;99.90;;;;;;6195668;23;20314;-88
2022/06/25 14:28:35;;;;;;;4.10;2.40;;;22.30;99.90;;;;;;6220686;23;20099;-90
2022/06/25 14:31:13;;;;;;;3.60;1.83;;;22.30;99.90;;;;;;6196064;23;20073;-90
2022/06/25 14:44:38;;;;;;;3.25;1.60;;;22.50;99.90;;;;;;6202068;23;20016;-90
2022/06/25 14:47:03;;;;;;;3.53;1.77;;;22.60;99.90;;;;;;6195349;23;20349;-90
2022/06/25 14:50:09;;;;;;;3.70;1.70;;;22.80;99.90;;;;;;6195185;23;20016;-92
2022/06/25 15:09:41;;;;;;;3.38;1.67;;;23.10;99.90;;;;;;6275757;22;20024;-90
2022/06/25 15:12:12;;;;;;;3.83;1.75;;;23.10;99.90;;;;;;6223355;22;20437;-89
2022/06/25 15:15:51;;;;;;;2.17;1.50;;;23.10;99.90;;;;;;6249542;22;20020;-90
2022/06/25 15:18:22;;;;;;;3.53;1.85;;;23.10;99.90;;;;;;6249726;22;20016;-89
2022/06/25 15:21:00;;;;;;;3.38;1.30;;;23.10;99.90;;;;;;6225056;22;20027;-89
2022/06/25 15:24:36;;;;;;;4.53;1.65;;;23.20;99.90;;;;;;6246709;22;20068;-88
2022/06/25 15:30:49;;;;;;;2.92;1.40;;;23.20;99.90;;;;;;6250379;22;20020;-88
2022/06/25 15:33:18;;;;;;;3.10;1.35;;;23.20;99.90;;;;;;6224055;22;20016;-87
2022/06/25 15:35:54;;;;;;;3.60;1.67;;;23.10;99.90;;;;;;6249350;22;20016;-88
2022/06/25 15:38:39;;;;;;;2.42;1.15;;;23.10;99.90;;;;;;6224938;22;20093;-88
2022/06/25 15:42:14;;;;;;;2.63;1.42;;;23.10;99.90;;;;;;6224720;22;20020;-89
2022/06/25 15:44:57;;;;;;;3.05;1.38;;;23.00;99.90;;;;;;6226893;22;20467;-90
2022/06/25 16:41:11;;;;;;;4.40;2.13;;;21.50;99.90;;;;;;6273151;22;20274;-88
2022/06/25 16:46:22;;;;;;;5.15;2.30;;;21.40;99.90;;;;;;6248839;22;20020;-88
2022/06/25 16:48:48;;;;;;;;;;;21.40;99.90;;;;;;6224679;22;20344;-90
2022/06/25 16:51:14;;;;;;;4.78;2.30;;;21.40;99.90;;;;;;6275401;22;19942;-88
2022/06/25 16:53:41;;;;;;;5.35;2.75;;;21.40;99.90;;;;;;6232722;22;20066;-90
2022/06/25 16:56:07;;;;;;;;;;;21.50;99.90;;;;;;6241374;22;20090;-89
2022/06/25 16:58:38;;;;;;;5.53;2.80;;;21.50;99.90;;;;;;6222565;22;19915;-88
2022/06/25 17:01:06;;;;;;;4.85;2.80;;;21.50;99.90;;;;;;6248988;22;20098;-89
2022/06/25 17:03:33;;;;;;;6.05;2.10;;;21.40;99.90;;;;;;6223460;22;20019;-89
2022/06/25 17:06:28;;;;;;;4.22;2.33;;;21.50;99.90;;;;;;6221582;22;20380;-89
2022/06/25 17:08:54;;;;;;;5.00;2.40;;;21.50;99.90;;;;;;6246032;22;20019;-88
2022/06/25 17:11:21;;;;;;;4.60;2.40;;;21.50;99.90;;;;;;6244353;22;20020;-88
2022/06/25 17:13:47;;;;;;;4.95;2.78;;;21.60;99.90;;;;;;6273462;22;20100;-90
2022/06/25 17:16:31;;;;;;;6.40;2.78;;;21.50;99.90;;;;;;6222105;22;20015;-89
2022/06/25 17:18:57;;;;;;;5.15;3.00;;;21.60;99.90;;;;;;6220778;22;20395;-89
2022/06/25 17:21:23;;;;;;;5.55;2.83;;;21.50;99.90;;;;;;6221624;22;20018;-90
2022/06/25 17:23:49;;;;;;;8.05;2.85;;;21.40;99.90;;;;;;6221244;22;20011;-89
2022/06/25 17:26:17;;;;;;;5.50;2.63;;;21.40;99.90;;;;;;6222806;22;20102;-91
2022/06/25 17:28:46;;;;;;;5.70;3.05;;;21.40;99.90;;;;;;6249152;22;20326;-93
2022/06/25 17:31:12;;;;;;;5.78;2.80;;;21.30;99.90;;;;;;6247427;22;20555;-91
2022/06/25 17:33:38;;;;;;;4.70;2.50;;;21.30;99.90;;;;;;6249731;22;20016;-93
2022/06/25 17:36:04;;;;;;;4.88;2.30;;;21.20;99.90;;;;;;6224354;22;20020;-92
2022/06/25 17:38:30;;;;;;;5.15;2.17;;;21.20;99.90;;;;;;6253325;22;20022;-92
2022/06/25 17:40:56;;;;;;;3.83;2.13;;;21.20;99.90;;;;;;6273466;22;20003;-92
2022/06/25 17:43:23;;;;;;;4.63;2.10;;;21.10;99.90;;;;;;6229292;22;20020;-90
2022/06/25 17:45:49;;;;;;;3.78;2.17;;;21.00;99.90;;;;;;6275355;22;20024;-92
2022/06/25 17:48:15;;;;;;;7.55;2.42;;;21.00;99.90;;;;;;6224059;22;20019;-93
2022/06/25 17:50:41;;;;;;;3.53;2.05;;;21.00;99.90;;;;;;6225892;22;20114;-92
2022/06/25 17:53:07;;;;;;;4.13;2.15;;;21.00;99.90;;;;;;6247632;22;20018;-90
2022/06/25 17:55:33;;;;;;;6.53;2.67;;;21.00;99.90;;;;;;6223268;22;20103;-90
2022/06/25 17:57:58;;;;;;;3.53;2.17;;;21.00;99.90;;;;;;6223573;22;20027;-90
2022/06/25 18:00:27;;;;;;;4.80;2.47;;;21.00;99.90;;;;;;6274517;22;20015;-90
2022/06/25 18:02:58;;;;;;;3.78;2.20;;;20.90;99.90;;;;;;6247923;22;20016;-92
2022/06/25 18:05:24;;;;;;;5.47;2.20;;;20.80;99.90;;;;;;6218762;22;20393;-89
2022/06/25 18:07:50;;;;;;;5.63;2.08;;;20.80;99.90;;;;;;6222121;22;20055;-91
2022/06/25 18:10:16;;;;;;;4.70;1.73;;;20.80;99.90;;;;;;6248822;22;20051;-89
2022/06/25 18:12:43;;;;;;;3.88;1.90;;;20.80;99.90;;;;;;6247518;22;20274;-90
2022/06/25 18:15:10;;;;;;;2.50;1.30;;;20.90;99.90;;;;;;6223987;22;20022;-89
2022/06/25 18:17:36;;;;;;;4.13;1.60;;;20.80;99.90;;;;;;6250603;22;20353;-87
2022/06/25 18:20:05;;;;;;;4.88;1.50;;;20.80;99.90;;;;;;6244279;22;20020;-91
2022/06/25 18:22:34;;;;;;;4.18;1.58;;;20.80;99.90;;;;;;6253861;22;20072;-88
2022/06/25 18:25:00;;;;;;;3.22;1.33;;;20.80;99.90;;;;;;6223550;22;20058;-87
2022/06/25 18:27:25;;;;;;;3.97;2.05;;;20.80;99.90;;;;;;6223577;22;20349;-88
2022/06/25 18:29:51;;;;;;;3.50;1.98;;;20.70;99.90;;;;;;6248794;22;20020;-87
2022/06/25 18:32:27;;;;;;;3.25;1.63;;;20.70;99.90;;;;;;6223452;22;20023;-87
2022/06/25 18:34:54;;;;;;;4.57;1.75;;;20.70;99.90;;;;;;6249377;22;20097;-88
2022/06/25 18:37:20;;;;;;;5.97;2.35;;;20.70;99.90;;;;;;6220742;22;20517;-88
2022/06/25 18:39:46;;;;;;;6.47;3.88;;;20.70;99.90;;;;;;6247837;22;20054;-91
2022/06/25 18:42:11;;;;;;;5.95;2.90;;;20.70;99.90;;;;;;6249381;22;20023;-88
2022/06/25 18:44:38;;;;;;;5.03;2.67;;;20.50;99.90;;;;;;6277963;22;20025;-88
2022/06/25 18:47:04;;;;;;;6.05;3.67;;;20.50;99.90;;;;;;6249687;22;20012;-88
2022/06/25 18:49:30;;;;;;;5.32;2.97;;;20.50;99.90;;;;;;6224588;22;20340;-87
2022/06/25 18:51:55;;;;;;;6.30;2.90;;;20.40;99.90;;;;;;6250748;22;20026;-88
2022/06/25 18:54:21;;;;;;;6.30;2.95;;;20.30;99.90;;;;;;6225289;22;20016;-88
2022/06/25 18:56:47;;;;;;;5.38;3.17;;;20.40;99.90;;;;;;6228056;22;20025;-89
2022/06/25 18:59:13;;;;;;;5.18;2.85;;;20.30;99.90;;;;;;6252385;22;20003;-91
2022/06/25 19:01:38;;;;;;;5.00;2.95;;;20.30;99.90;;;;;;6229154;22;20016;-90
2022/06/25 19:04:04;;;;;;;7.35;3.22;;;20.30;99.90;;;;;;6226088;22;20104;-88
2022/06/25 19:06:30;;;;;;;8.45;3.42;;;20.20;99.90;;;;;;6225698;22;20047;-89
2022/06/25 19:08:56;;;;;;;6.13;3.10;;;20.20;99.90;;;;;;6225510;22;20130;-89
2022/06/25 19:11:22;;;;;;;5.38;3.10;;;20.20;99.90;;;;;;6225571;22;20099;-90
2022/06/25 19:13:47;;;;;;;;;;;20.20;99.90;;;;;;6278534;22;20018;-89
2022/06/25 19:16:13;;;;;;;5.65;2.95;;;20.20;99.90;;;;;;6225860;22;19959;-89
2022/06/25 19:18:39;;;;;;;4.93;2.85;;;20.20;99.90;;;;;;6226028;22;20444;-89
2022/06/25 19:21:05;;;;;;;4.95;3.15;;;20.10;99.90;;;;;;6225614;22;20401;-92
2022/06/25 19:23:30;;;;;;;8.13;3.20;;;20.10;99.90;;;;;;6225938;22;20015;-91
2022/06/25 19:25:57;;;;;;;7.43;3.47;;;20.10;99.90;;;;;;6251377;22;20027;-90
2022/06/25 19:28:24;;;;;;;5.30;3.13;;;20.00;99.90;;;;;;6225709;22;20081;-89
2022/06/25 19:30:50;;;;;;;6.32;3.17;;;20.00;99.90;;;;;;6225561;22;20011;-88
2022/06/25 19:33:15;;;;;;;5.15;2.90;;;19.90;99.90;;;;;;6251165;22;20074;-91
2022/06/25 19:35:41;;;;;;;5.05;2.22;;;19.90;99.90;;;;;;6225757;22;20026;-92
2022/06/25 19:38:07;;;;;;;4.95;2.90;;;19.80;99.90;;;;;;6251190;22;20065;-92
2022/06/25 19:40:33;;;;;;;4.05;2.28;;;19.90;99.90;;;;;;6249679;22;20043;-92
2022/06/25 19:42:58;;;;;;;5.70;2.40;;;19.90;99.90;;;;;;6225465;22;20023;-90
2022/06/25 19:45:24;;;;;;;5.60;3.00;;;19.80;99.90;;;;;;6225691;22;20537;-90
2022/06/25 19:47:50;;;;;;;4.75;2.50;;;19.80;99.90;;;;;;6225830;22;20019;-92
2022/06/25 19:50:16;;;;;;;5.43;3.00;;;19.80;99.90;;;;;;6278181;22;20020;-93
2022/06/25 19:52:42;;;;;;;5.68;2.80;;;19.80;99.90;;;;;;6225132;22;20067;-90
2022/06/25 19:55:08;;;;;;;7.63;3.15;;;19.80;99.90;;;;;;6250484;22;20020;-90
2022/06/25 19:57:34;;;;;;;5.80;3.17;;;19.80;99.90;;;;;;6225191;22;20016;-89
2022/06/25 20:00:01;;;;;;;8.20;3.42;;;19.90;99.90;;;;;;6225865;22;20073;-93